createdAt,value
2019-01-06T00:00:10.620Z,5.80
2019-01-06T00:03:01.240Z,5.80
2019-01-06T00:06:07.488Z,5.80
2019-01-06T00:08:51.193Z,6.00
2019-01-06T00:11:33.845Z,6.10
2019-01-06T00:14:27.422Z,5.90
2019-01-06T00:17:27.443Z,5.80
2019-01-06T00:20:06.727Z,5.80
2019-01-06T00:22:55.918Z,5.70
2019-01-06T00:25:42.497Z,5.70
2019-01-06T00:28:29.028Z,5.70
2019-01-06T00:31:09.936Z,5.70
2019-01-06T00:34:16.172Z,5.50
2019-01-06T00:37:02.544Z,5.50
2019-01-06T00:39:53.130Z,5.20
2019-01-06T00:42:49.753Z,5.20
2019-01-06T00:45:36.171Z,5.20
2019-01-06T00:48:41.939Z,5.10
2019-01-06T00:51:28.672Z,5.20
2019-01-06T00:54:15.042Z,5.20
2019-01-06T00:56:55.287Z,4.90
2019-01-06T00:59:39.876Z,4.80
2019-01-06T01:02:39.934Z,4.90
2019-01-06T01:05:32.411Z,4.90
2019-01-06T01:08:29.503Z,4.90
2019-01-06T01:11:32.468Z,4.90
2019-01-06T01:14:38.429Z,4.80
2019-01-06T01:17:25.207Z,4.90
2019-01-06T01:20:11.760Z,4.90
2019-01-06T01:23:01.862Z,4.90
2019-01-06T01:25:52.508Z,4.90
2019-01-06T01:28:32.836Z,4.90
2019-01-06T01:31:34.866Z,5.00
2019-01-06T01:34:34.827Z,4.90
2019-01-06T01:37:25.804Z,4.90
2019-01-06T01:40:07.561Z,4.70
2019-01-06T01:42:55.532Z,4.60
2019-01-06T01:45:42.468Z,4.60
2019-01-06T01:48:38.054Z,4.60
2019-01-06T01:51:36.223Z,4.60
2019-01-06T01:54:22.954Z,4.60
2019-01-06T01:57:10.913Z,4.60
2019-01-06T01:59:57.778Z,4.50
2019-01-06T02:02:54.104Z,4.50
2019-01-06T02:05:34.920Z,4.50
2019-01-06T02:08:30.160Z,4.40
2019-01-06T02:11:10.453Z,4.40
2019-01-06T02:13:55.919Z,4.40
2019-01-06T02:16:51.480Z,4.40
2019-01-06T02:19:39.524Z,4.50
2019-01-06T02:22:25.185Z,4.60
2019-01-06T02:25:06.435Z,4.60
2019-01-06T02:27:57.683Z,4.80
2019-01-06T02:30:40.989Z,4.70
2019-01-06T02:33:27.916Z,4.80
2019-01-06T02:36:15.879Z,4.90
2019-01-06T02:38:56.309Z,5.00
2019-01-06T02:41:56.356Z,5.10
2019-01-06T02:44:59.568Z,5.00
2019-01-06T02:47:46.066Z,5.00
2019-01-06T02:50:32.116Z,5.00
2019-01-06T02:53:21.426Z,4.80
2019-01-06T02:56:09.412Z,4.80
2019-01-06T02:58:55.953Z,4.80
2019-01-06T03:01:48.658Z,4.80
2019-01-06T03:04:36.580Z,4.70
2019-01-06T03:07:33.640Z,4.80
2019-01-06T03:10:20.272Z,4.80
2019-01-06T03:13:06.950Z,4.90
2019-01-06T03:15:53.489Z,4.80
2019-01-06T03:18:41.545Z,4.90
2019-01-06T03:21:38.543Z,5.00
2019-01-06T03:24:32.661Z,4.90
2019-01-06T03:27:22.672Z,4.90
2019-01-06T03:30:22.484Z,5.00
2019-01-06T03:33:02.546Z,5.00
2019-01-06T03:35:47.852Z,4.90
2019-01-06T03:38:41.719Z,4.90
2019-01-06T03:41:27.628Z,5.00
2019-01-06T03:44:30.580Z,5.00
2019-01-06T03:47:18.584Z,5.00
2019-01-06T03:50:09.367Z,5.00
2019-01-06T03:52:55.717Z,5.00
2019-01-06T03:55:58.838Z,4.90
2019-01-06T03:59:01.903Z,5.00
2019-01-06T04:01:50.330Z,5.00
2019-01-06T04:04:36.761Z,4.90
2019-01-06T04:07:39.949Z,5.00
2019-01-06T04:10:36.883Z,5.00
2019-01-06T04:13:40.044Z,5.10
2019-01-06T04:16:26.281Z,5.20
2019-01-06T04:19:13.181Z,5.00
2019-01-06T04:22:12.860Z,5.00
2019-01-06T04:25:00.815Z,5.00
2019-01-06T04:27:51.479Z,4.80
2019-01-06T04:30:37.347Z,4.50
2019-01-06T04:33:19.234Z,4.70
2019-01-06T04:36:04.661Z,4.90
2019-01-06T04:38:55.508Z,4.90
2019-01-06T04:42:01.715Z,5.00
2019-01-06T04:44:55.436Z,5.00
2019-01-06T04:47:42.309Z,5.00
2019-01-06T04:50:45.775Z,5.00
2019-01-06T04:53:32.457Z,4.90
2019-01-06T04:56:19.251Z,5.00
2019-01-06T04:59:09.985Z,4.90
2019-01-06T05:02:06.729Z,4.80
2019-01-06T05:04:54.733Z,4.80
2019-01-06T05:07:40.413Z,4.80
2019-01-06T05:10:26.966Z,4.90
2019-01-06T05:13:14.921Z,4.90
2019-01-06T05:16:03.203Z,4.70
2019-01-06T05:19:03.266Z,4.60
2019-01-06T05:21:49.873Z,4.70
2019-01-06T05:24:37.845Z,4.60
2019-01-06T05:27:24.520Z,4.70
2019-01-06T05:30:11.323Z,4.70
2019-01-06T05:33:11.916Z,4.70
2019-01-06T05:35:57.751Z,4.60
2019-01-06T05:38:57.882Z,4.70
2019-01-06T05:41:46.539Z,4.60
2019-01-06T05:44:37.472Z,4.60
2019-01-06T05:47:21.288Z,4.60
2019-01-06T05:50:02.599Z,4.60
2019-01-06T05:52:43.570Z,4.70
2019-01-06T05:55:31.586Z,4.80
2019-01-06T05:58:25.835Z,4.70
2019-01-06T06:01:12.773Z,4.70
2019-01-06T06:04:00.038Z,4.60
2019-01-06T06:06:44.178Z,4.60
2019-01-06T06:09:27.518Z,4.60
2019-01-06T06:12:14.156Z,4.70
2019-01-06T06:15:02.162Z,4.80
2019-01-06T06:17:56.387Z,4.90
2019-01-06T06:20:47.254Z,4.90
2019-01-06T06:23:26.821Z,4.80
2019-01-06T06:26:26.998Z,4.80
2019-01-06T06:29:13.574Z,4.80
2019-01-06T06:32:00.325Z,4.80
2019-01-06T06:34:48.279Z,4.80
2019-01-06T06:37:35.492Z,4.80
2019-01-06T06:40:25.570Z,4.70
2019-01-06T06:43:10.649Z,4.80
2019-01-06T06:46:04.511Z,4.80
2019-01-06T06:48:58.712Z,4.70
2019-01-06T06:52:02.220Z,4.70
2019-01-06T06:54:49.112Z,4.60
2019-01-06T06:58:11.376Z,4.70
2019-01-06T07:01:11.120Z,4.70
2019-01-06T07:03:58.479Z,4.60
2019-01-06T07:06:52.273Z,4.70
2019-01-06T07:09:53.225Z,4.70
2019-01-06T07:12:40.145Z,4.70
2019-01-06T07:15:26.695Z,4.70
2019-01-06T07:18:26.479Z,4.80
2019-01-06T07:21:25.155Z,4.80
2019-01-06T07:24:12.118Z,4.90
2019-01-06T07:27:11.961Z,4.80
2019-01-06T07:30:05.268Z,4.80
2019-01-06T07:33:01.834Z,4.90
2019-01-06T07:35:48.189Z,4.90
2019-01-06T07:38:36.112Z,5.00
2019-01-06T07:41:39.266Z,5.00
2019-01-06T07:44:22.232Z,5.00
2019-01-06T07:47:11.441Z,4.90
2019-01-06T07:50:05.708Z,4.80
2019-01-06T07:52:54.522Z,4.90
2019-01-06T07:55:32.495Z,4.90
2019-01-06T07:58:18.924Z,5.10
2019-01-06T08:01:00.882Z,5.10
2019-01-06T08:03:53.641Z,5.10
2019-01-06T08:06:57.008Z,5.20
2019-01-06T08:09:56.970Z,5.00
2019-01-06T08:12:59.342Z,4.80
2019-01-06T08:15:43.312Z,4.80
2019-01-06T08:18:31.537Z,4.90
2019-01-06T08:21:18.364Z,4.90
2019-01-06T08:24:05.389Z,5.00
2019-01-06T08:26:53.485Z,5.10
2019-01-06T08:29:47.286Z,5.20
2019-01-06T08:32:23.126Z,5.30
2019-01-06T08:35:14.034Z,5.40
2019-01-06T08:38:13.809Z,5.40
2019-01-06T08:41:09.247Z,5.50
2019-01-06T08:43:57.253Z,5.50
2019-01-06T08:46:54.660Z,5.50
2019-01-06T08:49:41.621Z,5.50
2019-01-06T08:52:28.322Z,5.50
2019-01-06T08:55:15.047Z,5.40
2019-01-06T08:58:15.195Z,5.60
2019-01-06T09:01:01.840Z,5.60
2019-01-06T09:03:48.554Z,5.60
2019-01-06T09:06:35.380Z,5.70
2019-01-06T09:09:24.482Z,5.80
2019-01-06T09:12:15.536Z,6.00
2019-01-06T09:15:01.427Z,6.00
2019-01-06T09:17:48.345Z,5.80
2019-01-06T09:20:36.272Z,5.90
2019-01-06T09:23:18.668Z,5.60
2019-01-06T09:26:05.748Z,5.90
2019-01-06T09:29:06.866Z,6.00
2019-01-06T09:32:02.403Z,6.10
2019-01-06T09:34:54.058Z,6.30
2019-01-06T09:37:40.821Z,6.10
2019-01-06T09:40:21.779Z,6.40
2019-01-06T09:43:23.797Z,6.40
2019-01-06T09:46:13.219Z,6.30
2019-01-06T09:49:01.532Z,6.40
2019-01-06T09:51:55.628Z,6.50
2019-01-06T09:54:42.790Z,6.40
2019-01-06T09:57:36.259Z,6.70
2019-01-06T10:00:39.986Z,6.90
2019-01-06T10:03:26.878Z,7.00
2019-01-06T10:06:13.717Z,6.90
2019-01-06T10:09:01.776Z,6.90
2019-01-06T10:11:48.618Z,6.90
2019-01-06T10:14:48.824Z,7.00
2019-01-06T10:17:35.430Z,7.10
2019-01-06T10:20:23.883Z,7.10
2019-01-06T10:23:10.947Z,6.90
2019-01-06T10:25:59.563Z,6.90
2019-01-06T10:28:48.116Z,6.80
2019-01-06T10:31:31.940Z,6.90
2019-01-06T10:34:35.266Z,6.80
2019-01-06T10:37:29.605Z,7.10
2019-01-06T10:40:16.638Z,7.30
2019-01-06T10:43:19.959Z,7.30
2019-01-06T10:46:02.440Z,7.30
2019-01-06T10:48:44.173Z,7.70
2019-01-06T10:51:30.760Z,7.60
2019-01-06T10:54:27.751Z,7.40
2019-01-06T10:57:31.019Z,7.40
2019-01-06T11:00:17.503Z,7.50
2019-01-06T11:03:04.423Z,7.50
2019-01-06T11:05:58.417Z,7.40
2019-01-06T11:08:49.050Z,7.40
2019-01-06T11:11:46.030Z,7.30
2019-01-06T11:14:23.071Z,7.10
2019-01-06T11:17:20.121Z,7.00
2019-01-06T11:20:09.044Z,7.00
2019-01-06T11:22:59.176Z,7.10
2019-01-06T11:25:50.270Z,7.00
2019-01-06T11:28:37.014Z,7.00
2019-01-06T11:31:31.205Z,7.00
2019-01-06T11:34:25.382Z,7.10
2019-01-06T11:37:12.092Z,7.20
2019-01-06T11:39:59.020Z,7.30
2019-01-06T11:42:56.696Z,7.40
2019-01-06T11:45:43.173Z,7.50
2019-01-06T11:48:37.516Z,7.60
2019-01-06T11:51:24.349Z,7.60
2019-01-06T11:54:12.313Z,7.80
2019-01-06T11:56:59.007Z,7.80
2019-01-06T11:59:47.202Z,7.90
2019-01-06T12:02:39.202Z,7.60
2019-01-06T12:05:36.027Z,7.70
2019-01-06T12:08:40.697Z,7.60
2019-01-06T12:11:22.637Z,7.50
2019-01-06T12:14:16.430Z,7.50
2019-01-06T12:17:03.008Z,7.40
2019-01-06T12:19:49.732Z,7.40
2019-01-06T12:22:49.675Z,7.40
2019-01-06T12:25:46.792Z,7.50
2019-01-06T12:28:34.417Z,7.50
2019-01-06T12:31:31.128Z,7.20
2019-01-06T12:34:25.352Z,6.90
2019-01-06T12:37:12.887Z,7.00
2019-01-06T12:39:59.844Z,7.00
2019-01-06T12:42:57.731Z,7.20
2019-01-06T12:45:47.528Z,7.30
2019-01-06T12:48:34.249Z,7.30
2019-01-06T12:51:29.033Z,7.40
2019-01-06T12:54:32.180Z,7.40
2019-01-06T12:57:35.237Z,7.30
2019-01-06T13:00:22.595Z,7.20
2019-01-06T13:03:09.104Z,7.20
2019-01-06T13:05:56.278Z,7.20
2019-01-06T13:08:49.107Z,7.10
2019-01-06T13:11:36.992Z,7.00
2019-01-06T13:14:23.443Z,7.00
2019-01-06T13:17:26.396Z,7.10
2019-01-06T13:20:26.897Z,7.00
2019-01-06T13:23:33.596Z,7.00
2019-01-06T13:26:24.559Z,7.00
2019-01-06T13:29:24.504Z,7.00
2019-01-06T13:32:10.979Z,7.00
2019-01-06T13:34:57.476Z,7.10
2019-01-06T13:37:54.347Z,7.10
2019-01-06T13:40:51.545Z,6.90
2019-01-06T13:43:42.778Z,7.00
2019-01-06T13:46:30.845Z,6.90
2019-01-06T13:49:17.724Z,6.80
2019-01-06T13:52:06.236Z,6.30
2019-01-06T13:54:53.436Z,6.40
2019-01-06T13:57:55.680Z,6.70
2019-01-06T14:00:57.143Z,6.90
2019-01-06T14:03:45.936Z,7.00
2019-01-06T14:06:47.091Z,6.90
2019-01-06T14:09:45.143Z,6.90
2019-01-06T14:12:35.960Z,6.90
2019-01-06T14:15:25.470Z,6.70
2019-01-06T14:18:21.344Z,6.40
2019-01-06T14:21:08.035Z,6.20
2019-01-06T14:23:55.227Z,6.10
2019-01-06T14:26:43.426Z,6.30
2019-01-06T14:29:42.037Z,6.40
2019-01-06T14:32:42.443Z,6.50
2019-01-06T14:35:36.619Z,6.10
2019-01-06T14:38:24.274Z,6.20
2019-01-06T14:41:10.052Z,6.20
2019-01-06T14:43:56.615Z,6.20
2019-01-06T14:47:00.171Z,6.10
2019-01-06T14:50:00.829Z,6.00
2019-01-06T14:52:47.639Z,6.00
2019-01-06T14:55:30.267Z,6.00
2019-01-06T14:58:17.200Z,6.00
2019-01-06T15:01:08.310Z,6.10
2019-01-06T15:03:55.299Z,6.10
2019-01-06T15:06:46.310Z,6.10
2019-01-06T15:09:33.284Z,6.00
2019-01-06T15:12:21.448Z,6.00
2019-01-06T15:15:09.606Z,5.90
2019-01-06T15:17:57.678Z,5.90
2019-01-06T15:20:54.791Z,5.90
2019-01-06T15:23:41.737Z,5.90
2019-01-06T15:26:27.414Z,5.90
2019-01-06T15:29:18.675Z,6.00
2019-01-06T15:32:09.736Z,6.00
2019-01-06T15:35:09.996Z,5.70
2019-01-06T15:38:02.759Z,5.50
2019-01-06T15:40:51.093Z,5.60
2019-01-06T15:43:51.610Z,5.60
2019-01-06T15:46:39.208Z,5.60
2019-01-06T15:49:45.852Z,5.70
2019-01-06T15:52:37.153Z,5.70
2019-01-06T15:55:31.410Z,5.70
2019-01-06T15:58:32.667Z,5.80
2019-01-06T16:01:33.178Z,5.80
2019-01-06T16:04:26.943Z,5.90
2019-01-06T16:07:21.344Z,6.00
2019-01-06T16:10:00.896Z,6.00
2019-01-06T16:12:47.454Z,6.10
2019-01-06T16:15:50.697Z,6.10
2019-01-06T16:18:41.570Z,6.10
2019-01-06T16:21:31.599Z,5.80
2019-01-06T16:24:19.211Z,5.80
2019-01-06T16:27:07.771Z,5.70
2019-01-06T16:30:11.249Z,5.60
2019-01-06T16:33:08.353Z,5.60
2019-01-06T16:35:54.904Z,5.70
2019-01-06T16:38:41.445Z,5.60
2019-01-06T16:41:30.021Z,5.70
2019-01-06T16:44:16.704Z,5.70
2019-01-06T16:47:04.687Z,5.80
2019-01-06T16:49:51.242Z,5.80
2019-01-06T16:52:38.482Z,5.80
2019-01-06T16:55:31.060Z,5.80
2019-01-06T16:58:22.241Z,5.90
2019-01-06T17:01:20.953Z,6.00
2019-01-06T17:04:11.540Z,6.10
2019-01-06T17:06:59.742Z,6.10
2019-01-06T17:09:46.293Z,6.00
2019-01-06T17:12:43.874Z,6.00
2019-01-06T17:15:30.819Z,6.00
2019-01-06T17:18:30.658Z,6.10
2019-01-06T17:21:17.833Z,6.20
2019-01-06T17:24:14.674Z,6.20
2019-01-06T17:26:56.236Z,6.00
2019-01-06T17:29:49.978Z,6.10
2019-01-06T17:32:45.213Z,6.10
2019-01-06T17:35:33.877Z,6.00
2019-01-06T17:38:30.536Z,6.10
2019-01-06T17:41:36.519Z,6.20
2019-01-06T17:44:24.339Z,6.20
2019-01-06T17:47:14.767Z,6.00
2019-01-06T17:50:01.429Z,6.00
2019-01-06T17:52:47.041Z,5.90
2019-01-06T17:55:44.006Z,5.90
2019-01-06T17:58:40.916Z,5.90
2019-01-06T18:01:37.954Z,5.90
2019-01-06T18:04:24.567Z,5.80
2019-01-06T18:07:15.381Z,5.80
2019-01-06T18:10:08.303Z,5.90
2019-01-06T18:12:52.592Z,5.90
2019-01-06T18:15:45.798Z,6.00
2019-01-06T18:18:36.863Z,6.00
2019-01-06T18:21:23.808Z,6.00
2019-01-06T18:23:55.336Z,6.10
2019-01-06T18:27:01.527Z,6.10
2019-01-06T18:29:43.820Z,6.10
2019-01-06T18:32:30.382Z,6.10
2019-01-06T18:35:26.170Z,6.10
2019-01-06T18:38:13.002Z,6.10
2019-01-06T18:40:57.797Z,6.20
2019-01-06T18:43:51.186Z,6.00
2019-01-06T18:46:45.148Z,6.00
2019-01-06T18:49:45.632Z,6.00
2019-01-06T18:52:32.398Z,6.10
2019-01-06T18:55:25.626Z,6.20
2019-01-06T18:58:14.214Z,6.10
2019-01-06T19:01:20.260Z,6.20
2019-01-06T19:04:14.815Z,6.20
2019-01-06T19:07:02.846Z,6.20
2019-01-06T19:09:50.773Z,5.90
2019-01-06T19:12:37.752Z,5.90
2019-01-06T19:15:25.848Z,6.00
2019-01-06T19:18:20.389Z,6.00
2019-01-06T19:21:07.105Z,6.00
2019-01-06T19:23:59.744Z,6.00
2019-01-06T19:26:50.426Z,6.00
2019-01-06T19:29:32.849Z,6.10
2019-01-06T19:32:20.849Z,5.90
2019-01-06T19:35:18.333Z,6.00
2019-01-06T19:38:15.979Z,6.10
2019-01-06T19:41:19.087Z,6.10
2019-01-06T19:44:09.881Z,6.00
2019-01-06T19:46:56.410Z,6.00
2019-01-06T19:49:47.028Z,6.00
2019-01-06T19:52:45.327Z,5.80
2019-01-06T19:55:45.718Z,5.80
2019-01-06T19:58:32.531Z,5.80
2019-01-06T20:01:23.050Z,5.90
2019-01-06T20:04:09.587Z,6.00
2019-01-06T20:06:57.951Z,6.00
2019-01-06T20:09:48.367Z,6.00
2019-01-06T20:12:50.163Z,6.00
2019-01-06T20:15:37.849Z,5.90
2019-01-06T20:18:28.669Z,5.80
2019-01-06T20:21:15.333Z,5.80
2019-01-06T20:24:03.643Z,5.70
2019-01-06T20:27:00.905Z,5.70
2019-01-06T20:30:01.181Z,5.70
2019-01-06T20:32:45.283Z,5.70
2019-01-06T20:35:45.357Z,5.70
2019-01-06T20:38:28.854Z,5.70
2019-01-06T20:41:25.134Z,5.80
2019-01-06T20:44:32.855Z,5.80
2019-01-06T20:47:29.756Z,5.60
2019-01-06T20:50:29.807Z,5.60
2019-01-06T20:53:16.931Z,5.70
2019-01-06T20:56:03.828Z,5.60
2019-01-06T20:59:03.377Z,5.70
2019-01-06T21:02:06.813Z,5.70
2019-01-06T21:05:00.841Z,5.70
2019-01-06T21:07:47.487Z,5.80
2019-01-06T21:10:30.610Z,5.80
2019-01-06T21:13:18.704Z,5.80
2019-01-06T21:16:05.511Z,5.90
2019-01-06T21:18:53.486Z,5.90
2019-01-06T21:21:40.058Z,5.90
2019-01-06T21:24:28.145Z,5.90
2019-01-06T21:27:17.209Z,5.90
2019-01-06T21:30:05.868Z,5.70
2019-01-06T21:32:52.736Z,5.70
2019-01-06T21:35:58.842Z,5.70
2019-01-06T21:38:58.915Z,5.80
2019-01-06T21:41:52.768Z,5.70
2019-01-06T21:44:42.496Z,5.80
2019-01-06T21:47:31.570Z,5.80
2019-01-06T21:50:27.189Z,5.80
2019-01-06T21:53:19.847Z,5.80
2019-01-06T21:56:11.124Z,5.90
2019-01-06T21:59:11.238Z,5.90
2019-01-06T22:01:51.981Z,5.90
2019-01-06T22:04:38.437Z,5.90
2019-01-06T22:07:26.460Z,5.90
2019-01-06T22:10:17.141Z,5.80
2019-01-06T22:12:59.384Z,5.70
2019-01-06T22:15:50.133Z,5.40
2019-01-06T22:18:36.427Z,5.40
2019-01-06T22:21:21.979Z,5.40
2019-01-06T22:24:17.589Z,5.40
2019-01-06T22:27:09.728Z,5.20
2019-01-06T22:29:56.267Z,5.10
2019-01-06T22:32:43.190Z,5.00
2019-01-06T22:35:42.529Z,5.10
2019-01-06T22:38:29.991Z,5.10
2019-01-06T22:41:23.166Z,5.20
2019-01-06T22:44:02.977Z,5.30
2019-01-06T22:46:49.898Z,5.30
2019-01-06T22:49:32.777Z,5.30
2019-01-06T22:52:19.451Z,5.40
2019-01-06T22:55:06.349Z,5.40
2019-01-06T22:58:12.824Z,5.40
2019-01-06T23:01:10.280Z,5.40
2019-01-06T23:04:10.497Z,5.40
2019-01-06T23:06:52.814Z,5.40
2019-01-06T23:09:41.793Z,5.40
2019-01-06T23:12:22.850Z,5.40
2019-01-06T23:15:29.192Z,5.40
2019-01-06T23:18:22.005Z,5.40
2019-01-06T23:21:09.095Z,5.30
2019-01-06T23:24:09.558Z,5.30
2019-01-06T23:26:57.449Z,5.30
2019-01-06T23:29:44.636Z,5.30
2019-01-06T23:32:27.179Z,5.30
2019-01-06T23:35:26.229Z,5.40
2019-01-06T23:38:14.878Z,5.30
2019-01-06T23:41:08.617Z,5.30
2019-01-06T23:43:56.499Z,5.30
2019-01-06T23:46:47.364Z,5.40
2019-01-06T23:49:33.242Z,5.20
2019-01-06T23:52:32.774Z,5.20
2019-01-06T23:55:19.700Z,5.20
2019-01-06T23:58:16.709Z,5.30
